createdAt,value
2019-03-26T00:00:11.353Z,0.00
2019-03-26T00:03:11.261Z,0.00
2019-03-26T00:04:11.302Z,0.00
2019-03-26T00:05:11.509Z,0.00
2019-03-26T00:06:11.191Z,0.00
2019-03-26T00:07:11.165Z,0.00
2019-03-26T00:08:11.139Z,0.00
2019-03-26T00:09:11.115Z,0.00
2019-03-26T00:10:11.196Z,0.00
2019-03-26T00:11:11.386Z,0.00
2019-03-26T00:12:11.032Z,0.00
2019-03-26T00:14:10.987Z,0.00
2019-03-26T00:15:10.983Z,0.00
2019-03-26T00:16:10.932Z,0.00
2019-03-26T00:17:11.212Z,0.00
2019-03-26T00:18:10.889Z,0.00
2019-03-26T00:19:11.255Z,0.00
2019-03-26T00:20:11.134Z,0.00
2019-03-26T00:21:10.817Z,0.00
2019-03-26T00:22:10.988Z,0.00
2019-03-26T00:23:11.061Z,0.00
2019-03-26T00:24:10.729Z,0.00
2019-03-26T00:25:10.723Z,0.00
2019-03-26T00:27:10.667Z,0.00
2019-03-26T00:39:10.357Z,0.00
2019-03-26T00:40:10.329Z,0.00
2019-03-26T00:45:10.197Z,0.00
2019-03-26T00:49:10.099Z,0.00
2019-03-26T00:57:10.293Z,0.00
2019-03-26T01:15:09.494Z,0.00
2019-03-26T03:05:06.730Z,0.00
2019-03-26T03:11:06.578Z,0.00
2019-03-26T03:14:06.787Z,0.00
2019-03-26T04:50:04.208Z,20.00
2019-03-26T04:51:04.093Z,20.00
2019-03-26T04:55:03.973Z,36.00
2019-03-26T04:56:03.955Z,40.00
2019-03-26T05:11:03.713Z,264.00
2019-03-26T05:14:03.545Z,328.00
2019-03-26T05:15:03.853Z,344.00
2019-03-26T05:16:03.714Z,360.00
2019-03-26T05:17:03.450Z,368.00
2019-03-26T05:18:03.503Z,364.00
2019-03-26T05:19:03.450Z,348.00
2019-03-26T05:20:04.182Z,404.00
2019-03-26T05:23:03.298Z,668.00
2019-03-26T05:25:03.380Z,740.00
2019-03-26T05:26:03.276Z,804.00
2019-03-26T05:27:03.304Z,872.00
2019-03-26T05:28:03.519Z,952.00
2019-03-26T05:30:03.252Z,948.00
2019-03-26T05:31:03.109Z,952.00
2019-03-26T05:32:03.065Z,1024.00
2019-03-26T05:33:03.085Z,1148.00
2019-03-26T05:34:03.349Z,1148.00
2019-03-26T05:35:03.000Z,1096.00
2019-03-26T05:37:03.447Z,1060.00
2019-03-26T05:40:02.966Z,1308.00
2019-03-26T05:41:03.190Z,1348.00
2019-03-26T05:42:02.817Z,1352.00
2019-03-26T05:43:02.822Z,1468.00
2019-03-26T05:44:02.777Z,1664.00
2019-03-26T05:45:03.357Z,1696.00
2019-03-26T05:46:02.721Z,1688.00
2019-03-26T05:55:02.898Z,1968.00
2019-03-26T05:58:02.938Z,1836.00
2019-03-26T06:15:02.305Z,2868.00
2019-03-26T06:17:03.611Z,2624.00
2019-03-26T06:18:02.427Z,2532.00
2019-03-26T06:19:03.020Z,2732.00
2019-03-26T06:22:03.178Z,3468.00
2019-03-26T06:23:01.991Z,3320.00
2019-03-26T06:24:02.600Z,3044.00
2019-03-26T06:27:01.901Z,4316.00
2019-03-26T06:28:02.019Z,4348.00
2019-03-26T06:31:01.642Z,3848.00
2019-03-26T06:32:01.606Z,3288.00
2019-03-26T06:33:01.610Z,3196.00
2019-03-26T06:34:01.547Z,3548.00
2019-03-26T06:35:01.875Z,4448.00
2019-03-26T06:36:01.499Z,5292.00
2019-03-26T06:37:01.494Z,5432.00
2019-03-26T06:39:01.695Z,4812.00
2019-03-26T06:40:02.288Z,4972.00
2019-03-26T06:41:01.976Z,4892.00
2019-03-26T06:42:01.832Z,4696.00
2019-03-26T06:43:01.626Z,4948.00
2019-03-26T06:44:01.387Z,5064.00
2019-03-26T06:45:01.282Z,5508.00
2019-03-26T06:46:01.261Z,5652.00
2019-03-26T06:47:01.232Z,5848.00
2019-03-26T06:48:04.647Z,5884.00
2019-03-26T06:52:01.125Z,4892.00
2019-03-26T06:57:01.072Z,5160.00
2019-03-26T06:59:00.974Z,5124.00
2019-03-26T07:00:01.000Z,5036.00
2019-03-26T07:02:01.253Z,4588.00
2019-03-26T07:03:01.008Z,5560.00
2019-03-26T07:04:00.913Z,5368.00
2019-03-26T07:05:00.849Z,4180.00
2019-03-26T07:06:01.061Z,4820.00
2019-03-26T07:07:00.789Z,5084.00
2019-03-26T07:08:01.144Z,5892.00
2019-03-26T07:09:00.797Z,5100.00
2019-03-26T07:10:00.687Z,4736.00
2019-03-26T07:11:00.730Z,6340.00
2019-03-26T07:13:00.675Z,7016.00
2019-03-26T07:15:00.632Z,5908.00
2019-03-26T07:16:00.559Z,6192.00
2019-03-26T07:17:00.549Z,4712.00
2019-03-26T07:18:00.517Z,4224.00
2019-03-26T07:19:00.517Z,4308.00
2019-03-26T07:20:00.467Z,5936.00
2019-03-26T07:21:00.445Z,10428.00
2019-03-26T07:22:00.436Z,8644.00
2019-03-26T07:30:00.381Z,7608.00
2019-03-26T07:31:00.280Z,8280.00
2019-03-26T07:32:00.943Z,9508.00
2019-03-26T07:33:00.580Z,8864.00
2019-03-26T07:34:00.164Z,8176.00
2019-03-26T07:35:00.109Z,7804.00
2019-03-26T07:37:00.088Z,8740.00
2019-03-26T07:41:01.582Z,7384.00
2019-03-26T07:42:00.362Z,7408.00
2019-03-26T07:43:00.435Z,7064.00
2019-03-26T07:44:59.913Z,9940.00
2019-03-26T07:46:00.249Z,8924.00
2019-03-26T07:46:59.862Z,8336.00
2019-03-26T07:48:01.092Z,9168.00
2019-03-26T07:50:00.373Z,8124.00
2019-03-26T07:51:01.180Z,6712.00
2019-03-26T07:51:59.750Z,6516.00
2019-03-26T07:54:59.665Z,6508.00
2019-03-26T08:12:59.294Z,8476.00
2019-03-26T08:14:59.263Z,12904.00
2019-03-26T08:15:59.283Z,10144.00
2019-03-26T08:19:59.148Z,8700.00
2019-03-26T08:20:59.149Z,7592.00
2019-03-26T08:23:59.052Z,11608.00
2019-03-26T08:38:58.756Z,14636.00
2019-03-26T08:40:58.711Z,13096.00
2019-03-26T08:42:58.999Z,14256.00
2019-03-26T08:43:59.669Z,14496.00
2019-03-26T08:44:58.730Z,16328.00
2019-03-26T08:45:58.607Z,11720.00
2019-03-26T08:46:58.589Z,12052.00
2019-03-26T08:47:58.636Z,13492.00
2019-03-26T08:48:58.603Z,11504.00
2019-03-26T08:50:58.514Z,15852.00
2019-03-26T08:51:58.488Z,11660.00
2019-03-26T08:53:58.474Z,11792.00
2019-03-26T08:54:58.722Z,15136.00
2019-03-26T08:55:58.430Z,15664.00
2019-03-26T08:56:58.388Z,9900.00
2019-03-26T08:58:58.344Z,9532.00
2019-03-26T08:59:58.401Z,11116.00
2019-03-26T09:21:57.874Z,6380.00
2019-03-26T09:27:58.111Z,5704.00
2019-03-26T09:28:57.737Z,6336.00
2019-03-26T09:34:58.223Z,9160.00
2019-03-26T09:36:57.643Z,6532.00
2019-03-26T09:38:58.982Z,8376.00
2019-03-26T09:39:57.641Z,9900.00
2019-03-26T09:40:57.790Z,10184.00
2019-03-26T09:41:57.501Z,10836.00
2019-03-26T09:43:57.428Z,10488.00
2019-03-26T09:44:57.405Z,8748.00
2019-03-26T09:47:57.363Z,9916.00
2019-03-26T09:48:57.326Z,11436.00
2019-03-26T09:49:57.304Z,11276.00
2019-03-26T09:50:57.275Z,10244.00
2019-03-26T09:51:57.286Z,9660.00
2019-03-26T09:52:57.527Z,9520.00
2019-03-26T09:53:57.324Z,9416.00
2019-03-26T09:54:57.184Z,12360.00
2019-03-26T09:55:57.169Z,11328.00
2019-03-26T09:59:57.192Z,9228.00
2019-03-26T10:16:56.700Z,17024.00
2019-03-26T10:17:56.983Z,18464.00
2019-03-26T10:21:56.796Z,26560.00
2019-03-26T10:22:56.590Z,22432.00
2019-03-26T10:23:56.622Z,30304.00
2019-03-26T10:25:56.615Z,30944.00
2019-03-26T10:33:56.378Z,31136.00
2019-03-26T10:34:56.400Z,29312.00
2019-03-26T10:35:56.330Z,8616.00
2019-03-26T10:36:56.325Z,22368.00
2019-03-26T10:37:56.753Z,21408.00
2019-03-26T10:39:05.406Z,21664.00
2019-03-26T10:39:56.310Z,22944.00
2019-03-26T10:40:56.285Z,22272.00
2019-03-26T10:41:56.293Z,27552.00
2019-03-26T10:42:56.223Z,25568.00
2019-03-26T10:43:56.275Z,19776.00
2019-03-26T10:44:56.506Z,21152.00
2019-03-26T10:45:59.417Z,22624.00
2019-03-26T10:49:56.241Z,16800.00
2019-03-26T10:50:56.163Z,14576.00
2019-03-26T10:51:56.380Z,16864.00
2019-03-26T10:52:56.126Z,12992.00
2019-03-26T10:54:56.024Z,11720.00
2019-03-26T10:55:56.538Z,10584.00
2019-03-26T10:56:55.996Z,9116.00
2019-03-26T10:57:56.053Z,7676.00
2019-03-26T10:58:56.317Z,5700.00
2019-03-26T10:59:55.929Z,5528.00
2019-03-26T11:00:55.912Z,5136.00
2019-03-26T11:03:55.877Z,4616.00
2019-03-26T11:05:56.140Z,4336.00
2019-03-26T11:08:55.829Z,5400.00
2019-03-26T11:09:55.761Z,5840.00
2019-03-26T11:14:55.649Z,22176.00
2019-03-26T11:15:58.814Z,13472.00
2019-03-26T11:16:57.418Z,10120.00
2019-03-26T11:17:56.183Z,10248.00
2019-03-26T11:21:02.784Z,15920.00
2019-03-26T11:21:55.682Z,41216.00
2019-03-26T11:22:55.522Z,28384.00
2019-03-26T11:23:55.465Z,31616.00
2019-03-26T11:24:56.170Z,32608.00
2019-03-26T11:25:55.794Z,21920.00
2019-03-26T11:27:55.777Z,27040.00
2019-03-26T11:28:56.285Z,25120.00
2019-03-26T11:29:55.329Z,25024.00
2019-03-26T11:30:55.556Z,29312.00
2019-03-26T11:31:55.369Z,30112.00
2019-03-26T11:32:55.384Z,33440.00
2019-03-26T11:34:55.241Z,31680.00
2019-03-26T11:35:55.515Z,31456.00
2019-03-26T11:36:55.205Z,34400.00
2019-03-26T11:37:55.212Z,28448.00
2019-03-26T11:38:55.318Z,30176.00
2019-03-26T11:39:55.126Z,33248.00
2019-03-26T11:41:55.455Z,45888.00
2019-03-26T11:42:55.454Z,54496.00
2019-03-26T11:43:55.054Z,63808.00
2019-03-26T11:44:55.060Z,41568.00
2019-03-26T11:45:55.131Z,27872.00
2019-03-26T11:46:55.043Z,26112.00
2019-03-26T11:47:55.009Z,18016.00
2019-03-26T11:48:55.277Z,20320.00
2019-03-26T11:49:54.958Z,21440.00
2019-03-26T11:51:56.135Z,21504.00
2019-03-26T11:53:54.895Z,25664.00
2019-03-26T11:54:54.972Z,31200.00
2019-03-26T11:55:55.248Z,29536.00
2019-03-26T11:57:54.849Z,25376.00
2019-03-26T11:59:54.783Z,22592.00
2019-03-26T12:00:55.024Z,21568.00
2019-03-26T12:01:54.754Z,18560.00
2019-03-26T12:02:54.802Z,19744.00
2019-03-26T12:03:54.795Z,20544.00
2019-03-26T12:04:54.695Z,20768.00
2019-03-26T12:11:54.622Z,6440.00
2019-03-26T12:12:54.572Z,3784.00
2019-03-26T12:13:54.539Z,3724.00
2019-03-26T12:14:54.542Z,5112.00
2019-03-26T12:15:54.510Z,9932.00
2019-03-26T12:16:54.484Z,21792.00
2019-03-26T12:17:54.874Z,30784.00
2019-03-26T12:18:54.476Z,23584.00
2019-03-26T12:21:55.646Z,13560.00
2019-03-26T12:22:54.790Z,11532.00
2019-03-26T12:23:55.674Z,10940.00
2019-03-26T12:24:54.712Z,9668.00
2019-03-26T12:28:55.607Z,5548.00
2019-03-26T12:29:54.279Z,4944.00
2019-03-26T12:30:54.656Z,4716.00
2019-03-26T12:31:56.215Z,4636.00
2019-03-26T12:33:54.151Z,3988.00
2019-03-26T12:35:54.175Z,3052.00
2019-03-26T12:36:54.141Z,4468.00
2019-03-26T12:37:54.393Z,7664.00
2019-03-26T12:44:53.928Z,8488.00
2019-03-26T12:45:53.946Z,7464.00
2019-03-26T12:46:54.205Z,5876.00
2019-03-26T12:48:53.885Z,6632.00
2019-03-26T12:56:53.699Z,5264.00
2019-03-26T12:57:53.880Z,6720.00
2019-03-26T12:58:53.640Z,7444.00
2019-03-26T13:00:54.057Z,10424.00
2019-03-26T13:01:53.571Z,13600.00
2019-03-26T13:06:53.809Z,10640.00
2019-03-26T13:16:53.373Z,7012.00
2019-03-26T13:17:53.435Z,6432.00
2019-03-26T13:18:53.364Z,6276.00
2019-03-26T13:19:53.612Z,6792.00
2019-03-26T13:21:53.243Z,7372.00
2019-03-26T13:22:53.126Z,10668.00
2019-03-26T13:26:53.117Z,13472.00
2019-03-26T13:28:58.921Z,12592.00
2019-03-26T13:32:53.638Z,9604.00
2019-03-26T13:33:53.071Z,9984.00
2019-03-26T13:34:53.762Z,10272.00
2019-03-26T13:35:52.857Z,9920.00
2019-03-26T13:36:54.437Z,9784.00
2019-03-26T13:38:54.204Z,9684.00
2019-03-26T13:40:53.067Z,9040.00
2019-03-26T13:41:52.750Z,9628.00
2019-03-26T13:42:52.900Z,10492.00
2019-03-26T13:43:52.688Z,11168.00
2019-03-26T13:44:52.780Z,11536.00
2019-03-26T13:45:52.667Z,11840.00
2019-03-26T13:46:52.914Z,12360.00
2019-03-26T13:47:53.011Z,12928.00
2019-03-26T13:48:52.727Z,13620.00
2019-03-26T13:51:53.526Z,12396.00
2019-03-26T13:52:52.600Z,11280.00
2019-03-26T13:53:52.633Z,10668.00
2019-03-26T13:54:55.059Z,10784.00
2019-03-26T13:55:52.459Z,10580.00
2019-03-26T14:10:52.141Z,6936.00
2019-03-26T14:11:52.170Z,9540.00
2019-03-26T14:21:51.896Z,8192.00
2019-03-26T14:22:51.949Z,8092.00
2019-03-26T14:24:51.849Z,5928.00
2019-03-26T14:32:52.001Z,6416.00
2019-03-26T14:33:51.660Z,5676.00
2019-03-26T14:35:51.639Z,9404.00
2019-03-26T14:36:51.607Z,11540.00
2019-03-26T14:37:51.846Z,11760.00
2019-03-26T14:40:55.203Z,5256.00
2019-03-26T14:41:51.530Z,4760.00
2019-03-26T14:42:51.453Z,4568.00
2019-03-26T14:43:51.436Z,4208.00
2019-03-26T14:44:51.422Z,4444.00
2019-03-26T14:45:51.430Z,5728.00
2019-03-26T15:02:51.325Z,7696.00
2019-03-26T15:04:50.989Z,6732.00
2019-03-26T15:05:50.975Z,6436.00
2019-03-26T15:07:50.921Z,5984.00
2019-03-26T15:09:51.174Z,5036.00
2019-03-26T15:10:50.846Z,5516.00
2019-03-26T15:11:50.850Z,5424.00
2019-03-26T15:13:50.794Z,6592.00
2019-03-26T15:14:50.774Z,6432.00
2019-03-26T15:15:50.746Z,6732.00
2019-03-26T15:16:51.019Z,6384.00
2019-03-26T15:18:50.745Z,6552.00
2019-03-26T15:19:50.663Z,5816.00
2019-03-26T15:20:50.637Z,5780.00
2019-03-26T15:21:50.910Z,6196.00
2019-03-26T15:22:52.008Z,7128.00
2019-03-26T15:23:50.680Z,7144.00
2019-03-26T15:24:50.611Z,7012.00
2019-03-26T15:27:50.487Z,5312.00
2019-03-26T15:28:50.756Z,6468.00
2019-03-26T15:29:50.444Z,6864.00
2019-03-26T15:30:50.416Z,7264.00
2019-03-26T15:31:50.514Z,7524.00
2019-03-26T15:35:50.315Z,7916.00
2019-03-26T15:36:50.309Z,7916.00
2019-03-26T15:37:50.269Z,7884.00
2019-03-26T15:38:50.253Z,7548.00
2019-03-26T15:39:50.524Z,7644.00
2019-03-26T15:44:50.127Z,7648.00
2019-03-26T15:50:49.988Z,6844.00
2019-03-26T15:52:50.313Z,6692.00
2019-03-26T15:53:50.045Z,6720.00
2019-03-26T15:54:50.016Z,6628.00
2019-03-26T15:55:49.953Z,6480.00
2019-03-26T15:56:49.861Z,6288.00
2019-03-26T15:58:50.106Z,5624.00
2019-03-26T15:59:49.813Z,5376.00
2019-03-26T16:00:49.791Z,5072.00
2019-03-26T16:01:49.753Z,4808.00
2019-03-26T16:02:49.732Z,4928.00
2019-03-26T16:08:49.625Z,6300.00
2019-03-26T16:09:49.592Z,6088.00
2019-03-26T16:10:49.582Z,5256.00
2019-03-26T16:11:49.558Z,4784.00
2019-03-26T16:12:49.825Z,4152.00
2019-03-26T16:13:49.498Z,3756.00
2019-03-26T16:14:49.601Z,4168.00
2019-03-26T16:15:51.820Z,4040.00
2019-03-26T16:16:49.560Z,3804.00
2019-03-26T16:17:49.526Z,3440.00
2019-03-26T16:18:49.401Z,3456.00
2019-03-26T16:19:49.717Z,3248.00
2019-03-26T16:20:49.373Z,3356.00
2019-03-26T16:23:49.294Z,3512.00
2019-03-26T16:24:50.773Z,3184.00
2019-03-26T16:25:49.282Z,3716.00
2019-03-26T16:26:49.522Z,4220.00
2019-03-26T16:27:49.307Z,4144.00
2019-03-26T16:31:50.441Z,3652.00
2019-03-26T16:32:49.528Z,3816.00
2019-03-26T16:34:49.170Z,3396.00
2019-03-26T16:35:49.038Z,3020.00
2019-03-26T16:36:59.580Z,2304.00
2019-03-26T16:37:49.123Z,1664.00
2019-03-26T16:38:49.039Z,1644.00
2019-03-26T16:39:49.124Z,1880.00
2019-03-26T16:40:49.281Z,1752.00
2019-03-26T16:41:49.689Z,1548.00
2019-03-26T16:42:48.880Z,1680.00
2019-03-26T16:43:48.966Z,1884.00
2019-03-26T16:44:48.860Z,1768.00
2019-03-26T16:45:48.814Z,1544.00
2019-03-26T16:50:48.701Z,1780.00
2019-03-26T16:53:48.963Z,1960.00
2019-03-26T16:54:48.616Z,1876.00
2019-03-26T16:55:48.607Z,1732.00
2019-03-26T16:56:48.562Z,1540.00
2019-03-26T17:03:48.478Z,1204.00
2019-03-26T17:05:49.352Z,860.00
2019-03-26T17:06:48.341Z,816.00
2019-03-26T17:07:48.345Z,704.00
2019-03-26T17:09:48.281Z,668.00
2019-03-26T17:10:48.703Z,576.00
2019-03-26T17:12:02.123Z,592.00
2019-03-26T17:12:48.517Z,548.00
2019-03-26T17:13:48.180Z,520.00
2019-03-26T17:14:48.170Z,492.00
2019-03-26T17:15:48.144Z,436.00
2019-03-26T17:17:48.089Z,368.00
2019-03-26T17:18:48.377Z,332.00
2019-03-26T17:20:48.247Z,336.00
2019-03-26T17:21:48.004Z,288.00
2019-03-26T17:22:47.989Z,260.00
2019-03-26T17:23:48.038Z,260.00
2019-03-26T17:24:48.380Z,244.00
2019-03-26T17:25:47.967Z,228.00
2019-03-26T17:28:47.910Z,152.00
2019-03-26T17:29:47.827Z,136.00
2019-03-26T17:30:47.910Z,120.00
2019-03-26T17:31:48.506Z,112.00
2019-03-26T17:32:47.848Z,112.00
2019-03-26T17:33:47.831Z,104.00
2019-03-26T17:36:47.664Z,68.00
2019-03-26T17:37:58.943Z,64.00
2019-03-26T17:38:47.910Z,52.00
2019-03-26T17:42:47.525Z,40.00
2019-03-26T17:43:47.493Z,40.00
2019-03-26T17:44:47.462Z,40.00
2019-03-26T17:45:48.153Z,36.00
2019-03-26T17:47:47.440Z,52.00
2019-03-26T17:49:47.471Z,36.00
2019-03-26T17:50:47.421Z,28.00
2019-03-26T17:51:47.319Z,20.00
2019-03-26T17:52:47.590Z,16.00
2019-03-26T17:53:47.265Z,16.00
2019-03-26T17:54:47.244Z,16.00
2019-03-26T17:55:47.370Z,12.00
2019-03-26T18:02:47.107Z,4.00
2019-03-26T18:03:47.036Z,4.00
2019-03-26T18:04:47.101Z,4.00
2019-03-26T18:05:47.142Z,4.00
2019-03-26T18:06:47.260Z,4.00
2019-03-26T18:07:47.596Z,0.00
2019-03-26T18:09:47.228Z,0.00
2019-03-26T18:10:47.182Z,0.00
2019-03-26T18:11:46.846Z,0.00
2019-03-26T18:12:47.126Z,0.00
2019-03-26T18:13:47.115Z,0.00
2019-03-26T18:14:46.778Z,0.00
2019-03-26T18:15:46.853Z,0.00
2019-03-26T18:16:46.728Z,0.00
2019-03-26T18:17:46.725Z,0.00
2019-03-26T18:18:47.092Z,0.00
2019-03-26T18:19:46.676Z,0.00
2019-03-26T18:20:46.642Z,0.00
2019-03-26T18:21:51.645Z,0.00
2019-03-26T18:22:46.879Z,0.00
2019-03-26T18:24:48.241Z,0.00
2019-03-26T18:25:46.842Z,0.00
2019-03-26T18:26:46.501Z,0.00
2019-03-26T18:27:46.474Z,0.00
2019-03-26T18:28:46.480Z,0.00
2019-03-26T18:29:46.668Z,0.00
2019-03-26T18:30:46.416Z,0.00
2019-03-26T18:31:46.818Z,0.00
2019-03-26T18:32:46.681Z,0.00
2019-03-26T18:33:47.464Z,0.00
2019-03-26T18:34:47.285Z,0.00
2019-03-26T18:35:47.690Z,0.00
2019-03-26T18:36:47.439Z,0.00
2019-03-26T18:38:46.440Z,0.00
2019-03-26T18:39:46.314Z,0.00
2019-03-26T18:40:46.200Z,0.00
2019-03-26T18:41:46.157Z,0.00
2019-03-26T18:42:46.191Z,0.00
2019-03-26T18:44:46.172Z,0.00
2019-03-26T18:46:46.028Z,0.00
2019-03-26T18:47:46.052Z,0.00
2019-03-26T18:49:46.022Z,0.00
2019-03-26T18:50:46.233Z,0.00
2019-03-26T18:52:45.994Z,0.00
2019-03-26T18:53:46.008Z,0.00
2019-03-26T18:55:46.138Z,0.00
2019-03-26T18:56:45.918Z,0.00
2019-03-26T18:57:46.131Z,0.00
2019-03-26T19:00:46.040Z,0.00
2019-03-26T19:01:45.688Z,0.00
2019-03-26T19:03:45.649Z,0.00
2019-03-26T19:04:46.229Z,0.00
2019-03-26T19:05:45.770Z,0.00
2019-03-26T19:07:48.159Z,0.00
2019-03-26T19:08:45.565Z,0.00
2019-03-26T19:09:45.576Z,0.00
2019-03-26T19:10:45.808Z,0.00
2019-03-26T19:11:45.898Z,0.00
2019-03-26T19:12:56.462Z,0.00
2019-03-26T19:13:45.398Z,0.00
2019-03-26T19:15:45.359Z,0.00
2019-03-26T19:17:45.349Z,0.00
2019-03-26T19:18:47.506Z,0.00
2019-03-26T19:20:45.258Z,0.00
2019-03-26T19:21:45.238Z,0.00
2019-03-26T19:22:45.311Z,0.00
2019-03-26T19:23:45.664Z,0.00
2019-03-26T19:24:45.451Z,0.00
2019-03-26T19:25:45.554Z,0.00
2019-03-26T19:26:45.107Z,0.00
2019-03-26T19:27:45.077Z,0.00
2019-03-26T19:29:45.060Z,0.00
2019-03-26T19:58:44.411Z,0.00
2019-03-26T20:19:44.241Z,0.00
2019-03-26T20:20:44.027Z,0.00
2019-03-26T20:21:43.858Z,0.00
2019-03-26T20:24:43.812Z,0.00
2019-03-26T20:26:43.702Z,0.00
2019-03-26T20:28:44.779Z,0.00
2019-03-26T20:29:44.001Z,0.00
2019-03-26T20:30:45.621Z,0.00
2019-03-26T20:31:43.709Z,0.00
2019-03-26T20:32:43.667Z,0.00
2019-03-26T20:33:43.875Z,0.00
2019-03-26T20:36:45.243Z,0.00
2019-03-26T20:37:44.845Z,0.00
2019-03-26T20:38:43.445Z,0.00
2019-03-26T20:41:43.818Z,0.00
2019-03-26T20:43:43.750Z,0.00
2019-03-26T20:45:43.342Z,0.00
2019-03-26T20:46:43.232Z,0.00
2019-03-26T20:47:43.508Z,0.00
2019-03-26T20:48:43.590Z,0.00
2019-03-26T20:49:43.244Z,0.00
2019-03-26T20:50:43.219Z,0.00
2019-03-26T20:51:43.523Z,0.00
2019-03-26T20:52:43.197Z,0.00
2019-03-26T20:53:43.071Z,0.00
2019-03-26T20:54:43.120Z,0.00
2019-03-26T20:56:43.121Z,0.00
2019-03-26T21:22:42.399Z,0.00
2019-03-26T21:23:42.678Z,0.00
2019-03-26T21:24:42.356Z,0.00
2019-03-26T21:26:42.307Z,0.00
2019-03-26T21:27:42.276Z,0.00
2019-03-26T21:28:42.250Z,0.00
2019-03-26T21:29:42.535Z,0.00
2019-03-26T21:43:41.900Z,0.00
2019-03-26T21:44:41.888Z,0.00
2019-03-26T21:50:42.155Z,0.00
2019-03-26T21:51:43.449Z,0.00
2019-03-26T21:52:41.704Z,0.00
2019-03-26T21:53:41.843Z,0.00
2019-03-26T21:54:41.682Z,0.00
2019-03-26T21:55:42.337Z,0.00
2019-03-26T21:56:41.802Z,0.00
2019-03-26T21:57:42.181Z,0.00
2019-03-26T21:58:42.407Z,0.00
2019-03-26T21:59:42.069Z,0.00
2019-03-26T22:00:44.461Z,0.00
2019-03-26T22:01:42.898Z,0.00
2019-03-26T22:02:41.464Z,0.00
2019-03-26T22:03:41.455Z,0.00
2019-03-26T22:04:41.865Z,0.00
2019-03-26T22:05:41.541Z,0.00
2019-03-26T22:06:41.471Z,0.00
2019-03-26T22:07:42.068Z,0.00
2019-03-26T22:09:41.307Z,0.00
2019-03-26T22:10:41.377Z,0.00
2019-03-26T22:11:49.801Z,0.00
2019-03-26T22:14:41.549Z,0.00
2019-03-26T22:15:41.603Z,0.00
2019-03-26T22:16:41.408Z,0.00
2019-03-26T22:17:41.166Z,0.00
2019-03-26T22:19:42.304Z,0.00
2019-03-26T22:22:41.195Z,0.00
2019-03-26T22:23:42.459Z,0.00
2019-03-26T22:24:41.989Z,0.00
2019-03-26T22:26:41.380Z,0.00
2019-03-26T22:29:41.024Z,0.00
2019-03-26T22:30:42.195Z,0.00
2019-03-26T22:33:40.880Z,0.00
2019-03-26T22:34:41.046Z,0.00
2019-03-26T22:35:40.793Z,0.00
2019-03-26T22:36:40.980Z,0.00
2019-03-26T22:39:41.192Z,0.00
2019-03-26T22:40:40.862Z,0.00
2019-03-26T22:42:40.900Z,0.00
2019-03-26T22:43:40.486Z,0.00
2019-03-26T22:45:41.052Z,0.00
2019-03-26T22:46:40.521Z,0.00
2019-03-26T22:47:40.806Z,0.00
2019-03-26T22:48:40.816Z,0.00
2019-03-26T22:50:41.927Z,0.00
2019-03-26T22:51:40.292Z,0.00
2019-03-26T22:52:40.254Z,0.00
2019-03-26T22:54:41.285Z,0.00
2019-03-26T22:55:40.196Z,0.00
2019-03-26T22:56:40.840Z,0.00
2019-03-26T22:58:40.947Z,0.00
2019-03-26T23:00:42.010Z,0.00
2019-03-26T23:01:40.145Z,0.00
2019-03-26T23:05:40.343Z,0.00
2019-03-26T23:06:40.158Z,0.00
2019-03-26T23:08:39.877Z,0.00
2019-03-26T23:09:40.268Z,0.00
2019-03-26T23:11:41.582Z,0.00
2019-03-26T23:13:40.194Z,0.00
2019-03-26T23:14:45.420Z,0.00
2019-03-26T23:15:39.815Z,0.00
2019-03-26T23:17:40.111Z,0.00
2019-03-26T23:18:41.227Z,0.00
2019-03-26T23:19:40.456Z,0.00
2019-03-26T23:20:39.700Z,0.00
2019-03-26T23:21:40.179Z,0.00
2019-03-26T23:23:41.597Z,0.00
2019-03-26T23:24:41.051Z,0.00
2019-03-26T23:25:41.415Z,0.00
2019-03-26T23:26:39.437Z,0.00
2019-03-26T23:27:39.434Z,0.00
2019-03-26T23:28:39.688Z,0.00
2019-03-26T23:29:39.353Z,0.00
2019-03-26T23:30:40.390Z,0.00
2019-03-26T23:31:40.922Z,0.00
2019-03-26T23:32:39.601Z,0.00
2019-03-26T23:35:39.212Z,0.00
2019-03-26T23:36:39.630Z,0.00
2019-03-26T23:37:39.346Z,0.00
2019-03-26T23:38:39.677Z,0.00
2019-03-26T23:39:39.314Z,0.00
2019-03-26T23:40:39.196Z,0.00
2019-03-26T23:41:39.949Z,0.00
2019-03-26T23:42:39.032Z,0.00
2019-03-26T23:43:39.325Z,0.00
2019-03-26T23:44:38.980Z,0.00
2019-03-26T23:45:38.950Z,0.00
2019-03-26T23:46:38.991Z,0.00
2019-03-26T23:47:39.032Z,0.00
2019-03-26T23:48:38.912Z,0.00
2019-03-26T23:49:39.172Z,0.00
2019-03-26T23:50:38.852Z,0.00
2019-03-26T23:51:38.813Z,0.00
2019-03-26T23:52:38.922Z,0.00
2019-03-26T23:54:38.745Z,0.00
2019-03-26T23:55:39.013Z,0.00
2019-03-26T23:56:38.693Z,0.00
2019-03-26T23:57:38.687Z,0.00
2019-03-26T23:58:39.026Z,0.00
2019-03-26T23:59:39.056Z,0.00
